Terminal Aerodrome Forecast
Issued by NWS

Home | Current Version | Previous Version | Graphics & Text | Print | Product List | Glossary On
Versions: 1 2 3 4 5 6 7 8 9 10 11 12 13 14 15
000
FTUS43 KBIS 171100
TAFMOT
TAF
KMOT 171135Z 1712/1812 09008KT P6SM BKN050
     FM171500 12012KT P6SM BKN050
     FM171900 14015G22KT P6SM BKN060
     FM180300 11012KT P6SM BKN035=

USA.gov is the U.S. government's official web portal to all federal, state and local government web resources and services.